createdAt,value
2017-11-08T00:00:12.586Z,1036.84
2017-11-08T00:01:12.571Z,1036.77
2017-11-08T00:02:12.562Z,1036.82
2017-11-08T00:03:12.548Z,1036.81
2017-11-08T00:04:12.535Z,1036.8
2017-11-08T00:05:12.525Z,1036.84
2017-11-08T00:06:12.513Z,1036.81
2017-11-08T00:07:12.502Z,1036.83
2017-11-08T00:08:12.490Z,1036.78
2017-11-08T00:09:12.480Z,1036.77
2017-11-08T00:10:12.469Z,1036.75
2017-11-08T00:11:12.456Z,1036.68
2017-11-08T00:12:12.447Z,1036.6
2017-11-08T00:13:12.434Z,1036.59
2017-11-08T00:14:12.423Z,1036.58
2017-11-08T00:15:12.411Z,1036.56
2017-11-08T00:16:12.399Z,1036.61
2017-11-08T00:17:12.398Z,1036.68
2017-11-08T00:18:12.378Z,1036.64
2017-11-08T00:19:12.366Z,1036.6
2017-11-08T00:20:12.355Z,1036.58
2017-11-08T00:21:12.344Z,1036.49
2017-11-08T00:22:12.333Z,1036.48
2017-11-08T00:23:12.321Z,1036.45
2017-11-08T00:24:12.311Z,1036.46
2017-11-08T00:25:12.299Z,1036.44
2017-11-08T00:26:12.287Z,1036.43
2017-11-08T00:27:12.279Z,1036.4
2017-11-08T00:28:12.267Z,1036.38
2017-11-08T00:29:12.256Z,1036.3
2017-11-08T00:30:12.243Z,1036.3
2017-11-08T00:31:12.233Z,1036.34
2017-11-08T00:32:12.223Z,1036.3
2017-11-08T00:33:12.210Z,1036.26
2017-11-08T00:34:12.199Z,1036.23
2017-11-08T00:35:12.189Z,1036.18
2017-11-08T00:36:12.177Z,1036.19
2017-11-08T00:37:12.172Z,1036.18
2017-11-08T00:38:12.159Z,1036.19
2017-11-08T00:39:12.143Z,1036.25
2017-11-08T00:40:12.133Z,1036.27
2017-11-08T00:41:12.122Z,1036.24
2017-11-08T00:42:12.111Z,1036.28
2017-11-08T00:43:12.098Z,1036.26
2017-11-08T00:44:12.087Z,1036.27
2017-11-08T00:45:12.092Z,1036.34
2017-11-08T00:46:12.068Z,1036.35
2017-11-08T00:47:12.056Z,1036.4
2017-11-08T00:48:12.045Z,1036.42
2017-11-08T00:49:12.033Z,1036.45
2017-11-08T00:50:12.049Z,1036.47
2017-11-08T00:51:12.011Z,1036.44
2017-11-08T00:52:12.000Z,1036.42
2017-11-08T00:53:11.991Z,1036.46
2017-11-08T00:54:11.978Z,1036.45
2017-11-08T00:55:11.967Z,1036.49
2017-11-08T00:56:11.955Z,1036.48
2017-11-08T00:57:11.944Z,1036.5
2017-11-08T00:58:11.933Z,1036.55
2017-11-08T00:59:11.931Z,1036.59
2017-11-08T01:00:11.914Z,1036.57
2017-11-08T01:01:11.901Z,1036.58
2017-11-08T01:02:11.889Z,1036.56
2017-11-08T01:03:11.878Z,1036.59
2017-11-08T01:04:11.866Z,1036.61
2017-11-08T01:05:11.860Z,1036.59
2017-11-08T01:06:11.844Z,1036.61
2017-11-08T01:07:11.834Z,1036.62
2017-11-08T01:08:11.823Z,1036.6
2017-11-08T01:09:11.810Z,1036.59
2017-11-08T01:10:11.800Z,1036.58
2017-11-08T01:11:11.788Z,1036.52
2017-11-08T01:12:11.778Z,1036.55
2017-11-08T01:13:11.766Z,1036.55
2017-11-08T01:14:11.754Z,1036.54
2017-11-08T01:15:11.742Z,1036.57
2017-11-08T01:16:11.730Z,1036.54
2017-11-08T01:17:11.720Z,1036.5
2017-11-08T01:18:11.709Z,1036.5
2017-11-08T01:19:11.697Z,1036.49
2017-11-08T01:20:11.686Z,1036.41
2017-11-08T01:21:11.675Z,1036.43
2017-11-08T01:22:11.663Z,1036.41
2017-11-08T01:23:11.651Z,1036.4
2017-11-08T01:24:11.640Z,1036.42
2017-11-08T01:25:11.629Z,1036.39
2017-11-08T01:26:11.618Z,1036.42
2017-11-08T01:27:11.605Z,1036.45
2017-11-08T01:28:11.596Z,1036.41
2017-11-08T01:29:11.584Z,1036.43
2017-11-08T01:30:11.572Z,1036.38
2017-11-08T01:31:11.560Z,1036.4
2017-11-08T01:32:11.548Z,1036.39
2017-11-08T01:33:11.538Z,1036.44
2017-11-08T01:34:11.525Z,1036.38
2017-11-08T01:35:11.514Z,1036.39
2017-11-08T01:36:11.503Z,1036.35
2017-11-08T01:37:11.491Z,1036.33
2017-11-08T01:38:11.480Z,1036.34
2017-11-08T01:39:11.468Z,1036.35
2017-11-08T01:40:11.457Z,1036.35
2017-11-08T01:41:11.445Z,1036.37
2017-11-08T01:42:11.438Z,1036.33
2017-11-08T01:43:11.421Z,1036.29
2017-11-08T01:44:11.411Z,1036.28
2017-11-08T01:45:11.400Z,1036.3
2017-11-08T01:46:11.388Z,1036.33
2017-11-08T01:47:11.377Z,1036.33
2017-11-08T01:48:11.365Z,1036.3
2017-11-08T01:49:11.353Z,1036.31
2017-11-08T01:50:11.342Z,1036.28
2017-11-08T01:51:11.330Z,1036.32
2017-11-08T01:52:11.319Z,1036.33
2017-11-08T01:53:11.308Z,1036.32
2017-11-08T01:54:11.296Z,1036.33
2017-11-08T01:55:11.284Z,1036.28
2017-11-08T01:56:11.272Z,1036.23
2017-11-08T01:57:11.262Z,1036.23
2017-11-08T01:58:11.254Z,1036.19
2017-11-08T01:59:11.239Z,1036.23
2017-11-08T02:00:11.229Z,1036.21
2017-11-08T02:01:11.216Z,1036.21
2017-11-08T02:02:11.209Z,1036.2
2017-11-08T02:03:11.192Z,1036.19
2017-11-08T02:04:11.181Z,1036.21
2017-11-08T02:05:11.171Z,1036.18
2017-11-08T02:06:11.158Z,1036.19
2017-11-08T02:07:11.146Z,1036.18
2017-11-08T02:08:11.138Z,1036.16
2017-11-08T02:09:11.124Z,1036.18
2017-11-08T02:10:11.116Z,1036.14
2017-11-08T02:11:11.100Z,1036.19
2017-11-08T02:12:11.088Z,1036.19
2017-11-08T02:13:11.077Z,1036.18
2017-11-08T02:14:11.065Z,1036.17
2017-11-08T02:15:11.055Z,1036.23
2017-11-08T02:16:11.044Z,1036.27
2017-11-08T02:17:11.032Z,1036.28
2017-11-08T02:18:11.019Z,1036.31
2017-11-08T02:19:11.007Z,1036.31
2017-11-08T02:20:10.995Z,1036.3
2017-11-08T02:21:10.984Z,1036.31
2017-11-08T02:22:10.976Z,1036.3
2017-11-08T02:23:10.966Z,1036.29
2017-11-08T02:24:10.949Z,1036.28
2017-11-08T02:25:10.941Z,1036.28
2017-11-08T02:26:10.936Z,1036.24
2017-11-08T02:27:10.917Z,1036.25
2017-11-08T02:28:10.908Z,1036.25
2017-11-08T02:29:10.891Z,1036.25
2017-11-08T02:30:10.885Z,1036.24
2017-11-08T02:31:10.871Z,1036.17
2017-11-08T02:32:10.857Z,1036.26
2017-11-08T02:33:10.845Z,1036.21
2017-11-08T02:34:10.833Z,1036.29
2017-11-08T02:35:10.822Z,1036.29
2017-11-08T02:36:10.811Z,1036.3
2017-11-08T02:37:10.799Z,1036.23
2017-11-08T02:38:10.786Z,1036.19
2017-11-08T02:39:10.779Z,1036.2
2017-11-08T02:40:10.763Z,1036.16
2017-11-08T02:41:10.752Z,1036.17
2017-11-08T02:42:10.743Z,1036.14
2017-11-08T02:43:10.727Z,1036.14
2017-11-08T02:44:10.717Z,1036.23
2017-11-08T02:45:10.707Z,1036.22
2017-11-08T02:46:10.692Z,1036.2
2017-11-08T02:47:10.687Z,1036.2
2017-11-08T02:48:10.673Z,1036.2
2017-11-08T02:49:10.659Z,1036.16
2017-11-08T02:50:10.647Z,1036.16
2017-11-08T02:51:10.634Z,1036.19
2017-11-08T02:52:10.623Z,1036.23
2017-11-08T02:53:10.613Z,1036.28
2017-11-08T02:54:10.600Z,1036.24
2017-11-08T02:55:10.587Z,1036.21
2017-11-08T02:56:10.576Z,1036.24
2017-11-08T02:57:10.564Z,1036.24
2017-11-08T02:58:10.552Z,1036.25
2017-11-08T02:59:10.541Z,1036.21
2017-11-08T03:00:10.530Z,1036.23
2017-11-08T03:01:10.518Z,1036.22
2017-11-08T03:02:10.506Z,1036.23
2017-11-08T03:03:10.493Z,1036.21
2017-11-08T03:04:10.495Z,1036.18
2017-11-08T03:05:10.472Z,1036.19
2017-11-08T03:06:10.460Z,1036.19
2017-11-08T03:07:10.446Z,1036.16
2017-11-08T03:08:10.436Z,1036.2
2017-11-08T03:09:10.423Z,1036.22
2017-11-08T03:10:10.411Z,1036.2
2017-11-08T03:11:10.400Z,1036.18
2017-11-08T03:12:10.389Z,1036.2
2017-11-08T03:13:10.375Z,1036.21
2017-11-08T03:14:10.365Z,1036.24
2017-11-08T03:15:10.354Z,1036.23
2017-11-08T03:16:10.342Z,1036.25
2017-11-08T03:17:10.331Z,1036.29
2017-11-08T03:18:10.316Z,1036.3
2017-11-08T03:19:10.306Z,1036.33
2017-11-08T03:20:10.293Z,1036.31
2017-11-08T03:21:10.282Z,1036.37
2017-11-08T03:22:10.271Z,1036.39
2017-11-08T03:23:10.258Z,1036.38
2017-11-08T03:24:10.246Z,1036.41
2017-11-08T03:25:10.235Z,1036.39
2017-11-08T03:26:10.230Z,1036.4
2017-11-08T03:27:10.213Z,1036.36
2017-11-08T03:28:10.199Z,1036.41
2017-11-08T03:29:10.187Z,1036.44
2017-11-08T03:30:10.177Z,1036.4
2017-11-08T03:31:10.164Z,1036.4
2017-11-08T03:32:10.158Z,1036.41
2017-11-08T03:33:10.140Z,1036.41
2017-11-08T03:34:10.128Z,1036.38
2017-11-08T03:35:10.116Z,1036.41
2017-11-08T03:36:10.108Z,1036.4
2017-11-08T03:37:10.094Z,1036.4
2017-11-08T03:38:10.082Z,1036.34
2017-11-08T03:39:10.071Z,1036.3
2017-11-08T03:40:10.059Z,1036.24
2017-11-08T03:41:10.046Z,1036.19
2017-11-08T03:42:10.035Z,1036.12
2017-11-08T03:43:10.023Z,1036.08
2017-11-08T03:44:10.011Z,1036.04
2017-11-08T03:45:09.999Z,1036.01
2017-11-08T03:46:09.987Z,1036.01
2017-11-08T03:47:09.975Z,1035.93
2017-11-08T03:48:09.963Z,1035.93
2017-11-08T03:49:09.950Z,1035.89
2017-11-08T03:50:09.943Z,1035.86
2017-11-08T03:51:09.928Z,1035.81
2017-11-08T03:52:09.918Z,1035.76
2017-11-08T03:53:09.906Z,1035.77
2017-11-08T03:54:09.893Z,1035.76
2017-11-08T03:55:09.881Z,1035.84
2017-11-08T03:56:09.870Z,1035.82
2017-11-08T03:57:09.859Z,1035.81
2017-11-08T03:58:09.849Z,1035.81
2017-11-08T03:59:09.836Z,1035.77
2017-11-08T04:00:09.824Z,1035.78
2017-11-08T04:01:09.812Z,1035.8
2017-11-08T04:02:09.801Z,1035.84
2017-11-08T04:03:09.791Z,1035.85
2017-11-08T04:04:09.778Z,1035.85
2017-11-08T04:05:09.767Z,1035.86
2017-11-08T04:06:09.756Z,1035.85
2017-11-08T04:07:09.744Z,1035.91
2017-11-08T04:08:09.731Z,1035.91
2017-11-08T04:09:09.720Z,1035.93
2017-11-08T04:10:09.710Z,1035.99
2017-11-08T04:11:09.696Z,1035.97
2017-11-08T04:12:09.686Z,1035.96
2017-11-08T04:13:09.676Z,1035.95
2017-11-08T04:14:09.670Z,1035.88
2017-11-08T04:15:09.651Z,1035.88
2017-11-08T04:16:09.640Z,1035.78
2017-11-08T04:17:09.629Z,1035.8
2017-11-08T04:18:09.618Z,1035.72
2017-11-08T04:19:09.606Z,1035.69
2017-11-08T04:20:09.598Z,1035.69
2017-11-08T04:21:09.582Z,1035.57
2017-11-08T04:22:09.572Z,1035.57
2017-11-08T04:23:09.559Z,1035.51
2017-11-08T04:24:09.549Z,1035.48
2017-11-08T04:25:09.538Z,1035.41
2017-11-08T04:26:09.525Z,1035.42
2017-11-08T04:27:09.515Z,1035.38
2017-11-08T04:28:09.503Z,1035.41
2017-11-08T04:29:09.492Z,1035.37
2017-11-08T04:30:09.481Z,1035.38
2017-11-08T04:31:09.469Z,1035.44
2017-11-08T04:32:09.459Z,1035.4
2017-11-08T04:33:09.447Z,1035.38
2017-11-08T04:34:09.435Z,1035.41
2017-11-08T04:35:09.426Z,1035.39
2017-11-08T04:36:09.414Z,1035.36
2017-11-08T04:37:09.403Z,1035.32
2017-11-08T04:38:09.392Z,1035.3
2017-11-08T04:39:09.380Z,1035.3
2017-11-08T04:40:09.370Z,1035.29
2017-11-08T04:41:09.358Z,1035.25
2017-11-08T04:42:09.347Z,1035.23
2017-11-08T04:43:09.336Z,1035.28
2017-11-08T04:44:09.324Z,1035.25
2017-11-08T04:45:09.316Z,1035.25
2017-11-08T04:46:09.310Z,1035.23
2017-11-08T04:47:09.294Z,1035.23
2017-11-08T04:48:09.280Z,1035.25
2017-11-08T04:49:09.271Z,1035.26
2017-11-08T04:50:09.259Z,1035.26
2017-11-08T04:51:09.253Z,1035.23
2017-11-08T04:52:09.238Z,1035.2
2017-11-08T04:53:09.227Z,1035.22
2017-11-08T04:54:09.217Z,1035.21
2017-11-08T04:55:09.204Z,1035.19
2017-11-08T04:56:09.194Z,1035.12
2017-11-08T04:57:09.185Z,1035.16
2017-11-08T04:58:09.172Z,1035.16
2017-11-08T04:59:09.174Z,1035.19
2017-11-08T05:00:09.156Z,1035.18
2017-11-08T05:01:09.141Z,1035.18
2017-11-08T05:02:09.131Z,1035.17
2017-11-08T05:03:09.119Z,1035.17
2017-11-08T05:04:09.112Z,1035.17
2017-11-08T05:05:09.098Z,1035.14
2017-11-08T05:06:09.087Z,1035.17
2017-11-08T05:07:09.075Z,1035.22
2017-11-08T05:08:09.067Z,1035.21
2017-11-08T05:09:09.058Z,1035.2
2017-11-08T05:10:09.044Z,1035.21
2017-11-08T05:11:09.034Z,1035.18
2017-11-08T05:12:09.026Z,1035.12
2017-11-08T05:13:09.017Z,1035.13
2017-11-08T05:14:09.004Z,1035.11
2017-11-08T05:15:08.996Z,1035.19
2017-11-08T05:16:08.984Z,1035.16
2017-11-08T05:17:08.977Z,1035.17
2017-11-08T05:18:08.962Z,1035.11
2017-11-08T05:19:08.951Z,1035.11
2017-11-08T05:20:08.939Z,1035.15
2017-11-08T05:21:08.934Z,1035.12
2017-11-08T05:22:08.924Z,1035.17
2017-11-08T05:23:08.909Z,1035.23
2017-11-08T05:24:08.904Z,1035.24
2017-11-08T05:25:08.900Z,1035.28
2017-11-08T05:26:08.877Z,1035.31
2017-11-08T05:27:08.867Z,1035.25
2017-11-08T05:28:08.859Z,1035.25
2017-11-08T05:29:08.847Z,1035.24
2017-11-08T05:30:08.835Z,1035.27
2017-11-08T05:31:08.827Z,1035.29
2017-11-08T05:32:08.819Z,1035.3
2017-11-08T05:33:08.809Z,1035.37
2017-11-08T05:34:08.800Z,1035.35
2017-11-08T05:35:08.788Z,1035.4
2017-11-08T05:36:08.772Z,1035.45
2017-11-08T05:37:08.763Z,1035.47
2017-11-08T05:38:08.751Z,1035.48
2017-11-08T05:39:08.740Z,1035.46
2017-11-08T05:40:08.730Z,1035.47
2017-11-08T05:41:08.720Z,1035.47
2017-11-08T05:42:08.707Z,1035.51
2017-11-08T05:43:08.697Z,1035.56
2017-11-08T05:44:08.692Z,1035.61
2017-11-08T05:45:08.676Z,1035.65
2017-11-08T05:46:08.663Z,1035.69
2017-11-08T05:47:08.660Z,1035.77
2017-11-08T05:48:08.645Z,1035.83
2017-11-08T05:49:08.636Z,1035.93
2017-11-08T05:50:08.626Z,1036
2017-11-08T05:51:08.613Z,1036.07
2017-11-08T05:52:08.602Z,1036.13
2017-11-08T05:53:08.592Z,1036.25
2017-11-08T05:54:08.582Z,1036.3
2017-11-08T05:55:08.569Z,1036.33
2017-11-08T05:56:08.560Z,1036.4
2017-11-08T05:57:08.547Z,1036.45
2017-11-08T05:58:08.537Z,1036.49
2017-11-08T05:59:08.527Z,1036.51
2017-11-08T06:00:08.516Z,1036.55
2017-11-08T06:01:08.505Z,1036.62
2017-11-08T06:02:08.493Z,1036.65
2017-11-08T06:03:08.482Z,1036.68
2017-11-08T06:04:08.473Z,1036.74
2017-11-08T06:05:08.460Z,1036.7
2017-11-08T06:06:08.450Z,1036.71
2017-11-08T06:07:08.443Z,1036.75
2017-11-08T06:08:08.427Z,1036.75
2017-11-08T06:09:08.416Z,1036.73
2017-11-08T06:10:08.406Z,1036.74
2017-11-08T06:11:08.394Z,1036.79
2017-11-08T06:12:08.384Z,1036.79
2017-11-08T06:13:08.372Z,1036.8
2017-11-08T06:14:08.362Z,1036.79
2017-11-08T06:15:08.351Z,1036.81
2017-11-08T06:16:08.338Z,1036.82
2017-11-08T06:17:08.327Z,1036.76
2017-11-08T06:18:08.317Z,1036.75
2017-11-08T06:19:08.307Z,1036.77
2017-11-08T06:20:08.292Z,1036.79
2017-11-08T06:21:08.282Z,1036.78
2017-11-08T06:22:08.271Z,1036.86
2017-11-08T06:23:08.259Z,1036.85
2017-11-08T06:24:08.249Z,1036.85
2017-11-08T06:25:08.237Z,1036.86
2017-11-08T06:26:08.226Z,1036.89
2017-11-08T06:27:08.212Z,1036.82
2017-11-08T06:28:08.202Z,1036.84
2017-11-08T06:29:08.192Z,1036.95
2017-11-08T06:30:08.184Z,1036.94
2017-11-08T06:31:08.167Z,1036.93
2017-11-08T06:32:08.156Z,1036.9
2017-11-08T06:33:08.145Z,1036.94
2017-11-08T06:34:08.133Z,1036.95
2017-11-08T06:35:08.126Z,1036.94
2017-11-08T06:36:08.111Z,1036.95
2017-11-08T06:37:08.102Z,1036.9
2017-11-08T06:38:08.088Z,1036.96
2017-11-08T06:39:08.076Z,1036.94
2017-11-08T06:40:08.065Z,1036.92
2017-11-08T06:41:08.053Z,1036.88
2017-11-08T06:42:08.040Z,1036.94
2017-11-08T06:43:08.029Z,1036.94
2017-11-08T06:44:08.019Z,1036.98
2017-11-08T06:45:08.006Z,1036.94
2017-11-08T06:46:07.995Z,1037.06
2017-11-08T06:47:07.986Z,1037.01
2017-11-08T06:48:07.976Z,1037.01
2017-11-08T06:49:07.962Z,1037.04
2017-11-08T06:50:07.950Z,1037.05
2017-11-08T06:51:07.938Z,1037.07
2017-11-08T06:52:07.927Z,1037.09
2017-11-08T06:53:07.915Z,1037.11
2017-11-08T06:54:07.904Z,1037.11
2017-11-08T06:55:07.895Z,1037.12
2017-11-08T06:56:07.879Z,1037.03
2017-11-08T06:57:07.868Z,1037
2017-11-08T06:58:07.856Z,1036.96
2017-11-08T06:59:07.845Z,1036.91
2017-11-08T07:00:07.833Z,1036.93
2017-11-08T07:01:07.830Z,1036.94
2017-11-08T07:02:07.810Z,1036.97
2017-11-08T07:03:07.799Z,1036.96
2017-11-08T07:04:07.788Z,1037.01
2017-11-08T07:05:07.790Z,1036.97
2017-11-08T07:06:07.766Z,1037
2017-11-08T07:07:07.752Z,1036.98
2017-11-08T07:08:07.742Z,1036.93
2017-11-08T07:09:07.729Z,1036.96
2017-11-08T07:10:07.719Z,1036.96
2017-11-08T07:11:07.705Z,1036.94
2017-11-08T07:12:07.704Z,1036.99
2017-11-08T07:13:07.684Z,1036.97
2017-11-08T07:14:07.671Z,1036.96
2017-11-08T07:15:07.661Z,1036.94
2017-11-08T07:16:07.651Z,1036.93
2017-11-08T07:17:07.639Z,1036.92
2017-11-08T07:18:07.635Z,1036.86
2017-11-08T07:19:07.615Z,1036.87
2017-11-08T07:20:07.605Z,1036.88
2017-11-08T07:21:07.593Z,1036.86
2017-11-08T07:22:07.581Z,1036.8
2017-11-08T07:23:07.569Z,1036.73
2017-11-08T07:24:07.558Z,1036.73
2017-11-08T07:25:07.559Z,1036.76
2017-11-08T07:26:07.535Z,1036.73
2017-11-08T07:27:07.523Z,1036.69
2017-11-08T07:28:07.513Z,1036.67
2017-11-08T07:29:07.501Z,1036.64
2017-11-08T07:30:07.489Z,1036.68
2017-11-08T07:31:07.483Z,1036.63
2017-11-08T07:32:07.475Z,1036.66
2017-11-08T07:33:07.455Z,1036.62
2017-11-08T07:34:07.450Z,1036.59
2017-11-08T07:35:07.433Z,1036.59
2017-11-08T07:36:07.421Z,1036.58
2017-11-08T07:37:07.409Z,1036.61
2017-11-08T07:38:07.398Z,1036.51
2017-11-08T07:39:07.388Z,1036.48
2017-11-08T07:40:07.375Z,1036.46
2017-11-08T07:41:07.364Z,1036.49
2017-11-08T07:42:07.360Z,1036.47
2017-11-08T07:43:07.341Z,1036.4
2017-11-08T07:44:07.332Z,1036.44
2017-11-08T07:45:07.318Z,1036.4
2017-11-08T07:46:07.309Z,1036.36
2017-11-08T07:47:07.297Z,1036.35
2017-11-08T07:48:07.286Z,1036.4
2017-11-08T07:49:07.274Z,1036.39
2017-11-08T07:50:07.273Z,1036.35
2017-11-08T07:51:07.276Z,1036.35
2017-11-08T07:52:07.240Z,1036.33
2017-11-08T07:53:07.229Z,1036.34
2017-11-08T07:54:07.217Z,1036.32
2017-11-08T07:55:07.207Z,1036.24
2017-11-08T07:56:07.196Z,1036.29
2017-11-08T07:57:07.183Z,1036.31
2017-11-08T07:58:07.188Z,1036.33
2017-11-08T07:59:07.161Z,1036.38
2017-11-08T08:00:07.151Z,1036.44
2017-11-08T08:01:07.150Z,1036.36
2017-11-08T08:02:07.136Z,1036.34
2017-11-08T08:03:07.116Z,1036.33
2017-11-08T08:04:07.111Z,1036.33
2017-11-08T08:05:07.093Z,1036.36
2017-11-08T08:06:07.083Z,1036.42
2017-11-08T08:07:07.071Z,1036.37
2017-11-08T08:08:07.061Z,1036.37
2017-11-08T08:09:07.050Z,1036.38
2017-11-08T08:10:07.040Z,1036.34
2017-11-08T08:11:07.050Z,1036.31
2017-11-08T08:12:07.018Z,1036.26
2017-11-08T08:13:07.009Z,1036.19
2017-11-08T08:14:06.995Z,1036.18
2017-11-08T08:15:06.985Z,1036.22
2017-11-08T08:16:06.973Z,1036.22
2017-11-08T08:17:06.962Z,1036.19
2017-11-08T08:18:06.951Z,1036.21
2017-11-08T08:19:06.942Z,1036.22
2017-11-08T08:20:06.929Z,1036.18
2017-11-08T08:21:06.918Z,1036.15
2017-11-08T08:22:06.909Z,1036.11
2017-11-08T08:23:06.898Z,1036.14
2017-11-08T08:24:06.893Z,1036.13
2017-11-08T08:25:06.878Z,1036.13
2017-11-08T08:26:06.868Z,1036.16
2017-11-08T08:27:06.856Z,1036.15
2017-11-08T08:28:06.844Z,1036.18
2017-11-08T08:29:06.834Z,1036.25
2017-11-08T08:30:06.828Z,1036.25
2017-11-08T08:31:06.811Z,1036.26
2017-11-08T08:32:06.803Z,1036.21
2017-11-08T08:33:06.790Z,1036.23
2017-11-08T08:34:06.783Z,1036.21
2017-11-08T08:35:06.777Z,1036.24
2017-11-08T08:36:06.760Z,1036.26
2017-11-08T08:37:06.747Z,1036.3
2017-11-08T08:38:06.737Z,1036.28
2017-11-08T08:39:06.724Z,1036.24
2017-11-08T08:40:06.715Z,1036.2
2017-11-08T08:41:06.703Z,1036.15
2017-11-08T08:42:06.692Z,1036.1
2017-11-08T08:43:06.682Z,1036.09
2017-11-08T08:44:06.672Z,1036.03
2017-11-08T08:45:06.660Z,1036.08
2017-11-08T08:46:06.650Z,1036.01
2017-11-08T08:47:06.638Z,1035.97
2017-11-08T08:48:06.638Z,1035.9
2017-11-08T08:49:06.635Z,1035.84
2017-11-08T08:50:06.622Z,1035.8
2017-11-08T08:51:06.601Z,1035.77
2017-11-08T08:52:06.586Z,1035.75
2017-11-08T08:53:06.579Z,1035.71
2017-11-08T08:54:06.564Z,1035.68
2017-11-08T08:55:06.555Z,1035.59
2017-11-08T08:56:06.545Z,1035.64
2017-11-08T08:57:06.532Z,1035.64
2017-11-08T08:58:06.522Z,1035.62
2017-11-08T08:59:06.529Z,1035.56
2017-11-08T09:00:06.503Z,1035.53
2017-11-08T09:01:06.491Z,1035.47
2017-11-08T09:02:06.494Z,1035.39
2017-11-08T09:03:06.473Z,1035.26
2017-11-08T09:04:06.459Z,1035.17
2017-11-08T09:05:06.449Z,1035.1
2017-11-08T09:06:06.440Z,1035.08
2017-11-08T09:07:06.445Z,1035.01
2017-11-08T09:08:06.418Z,1035.05
2017-11-08T09:09:06.426Z,1035.08
2017-11-08T09:10:06.397Z,1035.06
2017-11-08T09:11:06.387Z,1035.02
2017-11-08T09:12:06.377Z,1035.06
2017-11-08T09:13:06.371Z,1035.07
2017-11-08T09:14:06.359Z,1035.1
2017-11-08T09:15:06.353Z,1035.08
2017-11-08T09:16:06.339Z,1035.04
2017-11-08T09:17:06.338Z,1035.04
2017-11-08T09:18:06.317Z,1035.01
2017-11-08T09:19:06.308Z,1034.97
2017-11-08T09:20:06.298Z,1035.01
2017-11-08T09:21:06.287Z,1034.89
2017-11-08T09:22:06.279Z,1034.91
2017-11-08T09:23:06.269Z,1034.84
2017-11-08T09:24:06.259Z,1034.81
2017-11-08T09:25:06.250Z,1034.72
2017-11-08T09:26:06.241Z,1034.67
2017-11-08T09:27:06.230Z,1034.67
2017-11-08T09:28:06.222Z,1034.54
2017-11-08T09:29:06.211Z,1034.54
2017-11-08T09:30:06.210Z,1034.55
2017-11-08T09:31:06.193Z,1034.49
2017-11-08T09:32:06.184Z,1034.48
2017-11-08T09:33:06.173Z,1034.43
2017-11-08T09:34:06.164Z,1034.38
2017-11-08T09:35:06.154Z,1034.34
2017-11-08T09:36:06.146Z,1034.37
2017-11-08T09:37:06.140Z,1034.36
2017-11-08T09:38:06.127Z,1034.36
2017-11-08T09:39:06.119Z,1034.31
2017-11-08T09:40:06.109Z,1034.35
2017-11-08T09:41:06.100Z,1034.38
2017-11-08T09:42:06.092Z,1034.4
2017-11-08T09:43:06.082Z,1034.41
2017-11-08T09:44:06.071Z,1034.42
2017-11-08T09:45:06.064Z,1034.5
2017-11-08T09:46:06.053Z,1034.6
2017-11-08T09:47:06.046Z,1034.51
2017-11-08T09:48:06.037Z,1034.49
2017-11-08T09:49:06.026Z,1034.46
2017-11-08T09:50:06.018Z,1034.5
2017-11-08T09:51:06.010Z,1034.44
2017-11-08T09:52:06.000Z,1034.4
2017-11-08T09:53:05.991Z,1034.38
2017-11-08T09:54:05.986Z,1034.34
2017-11-08T09:55:05.983Z,1034.33
2017-11-08T09:56:05.962Z,1034.41
2017-11-08T09:57:05.973Z,1034.26
2017-11-08T09:58:05.945Z,1034.33
2017-11-08T09:59:05.942Z,1034.28
2017-11-08T10:00:05.927Z,1034.3
2017-11-08T10:01:05.928Z,1034.29
2017-11-08T10:02:05.912Z,1034.33
2017-11-08T10:03:05.908Z,1034.38
2017-11-08T10:04:05.891Z,1034.4
2017-11-08T10:05:05.892Z,1034.43
2017-11-08T10:06:05.873Z,1034.39
2017-11-08T10:07:05.874Z,1034.45
2017-11-08T10:08:05.880Z,1034.43
2017-11-08T10:09:05.845Z,1034.41
2017-11-08T10:10:05.857Z,1034.42
2017-11-08T10:11:05.826Z,1034.43
2017-11-08T10:12:05.826Z,1034.38
2017-11-08T10:13:05.832Z,1034.32
2017-11-08T10:14:05.798Z,1034.25
2017-11-08T10:15:05.788Z,1034.22
2017-11-08T10:16:05.803Z,1034.19
2017-11-08T10:17:05.772Z,1034.2
2017-11-08T10:18:05.760Z,1034.17
2017-11-08T10:19:05.753Z,1034.13
2017-11-08T10:20:05.753Z,1034.17
2017-11-08T10:21:05.733Z,1034.12
2017-11-08T10:22:05.724Z,1034.13
2017-11-08T10:23:05.715Z,1034.04
2017-11-08T10:24:05.706Z,1034.01
2017-11-08T10:25:05.696Z,1033.97
2017-11-08T10:26:05.687Z,1033.97
2017-11-08T10:27:05.694Z,1034.05
2017-11-08T10:28:05.671Z,1034.06
2017-11-08T10:29:05.661Z,1034.06
2017-11-08T10:30:05.652Z,1034.05
2017-11-08T10:31:05.641Z,1034.02
2017-11-08T10:32:05.634Z,1033.99
2017-11-08T10:33:05.646Z,1033.99
2017-11-08T10:34:05.617Z,1033.94
2017-11-08T10:35:05.624Z,1033.88
2017-11-08T10:36:05.599Z,1033.89
2017-11-08T10:37:05.590Z,1033.92
2017-11-08T10:38:05.598Z,1033.95
2017-11-08T10:39:05.828Z,1033.99
2017-11-08T10:40:05.564Z,1034.09
2017-11-08T10:41:05.555Z,1034.1
2017-11-08T10:42:05.513Z,1034.05
2017-11-08T10:43:05.511Z,1034.09
2017-11-08T10:44:05.515Z,1034.02
2017-11-08T10:45:05.509Z,1034.07
2017-11-08T10:46:05.476Z,1034.09
2017-11-08T10:47:05.466Z,1034.13
2017-11-08T10:48:05.473Z,1034.16
2017-11-08T10:49:05.455Z,1034.14
2017-11-08T10:50:05.442Z,1034.11
2017-11-08T10:51:05.430Z,1034.07
2017-11-08T10:52:05.430Z,1034.04
2017-11-08T10:53:05.412Z,1034.07
2017-11-08T10:54:05.405Z,1034.08
2017-11-08T10:55:05.396Z,1034.09
2017-11-08T10:56:05.394Z,1034.1
2017-11-08T10:57:05.380Z,1034.05
2017-11-08T10:58:05.375Z,1034.08
2017-11-08T10:59:05.376Z,1034.03
2017-11-08T11:00:05.374Z,1034.02
2017-11-08T11:01:05.342Z,1034.02
2017-11-08T11:02:05.340Z,1034.04
2017-11-08T11:03:05.328Z,1034
2017-11-08T11:04:05.319Z,1034.02
2017-11-08T11:05:05.310Z,1034.07
2017-11-08T11:06:05.305Z,1034.02
2017-11-08T11:07:05.299Z,1034.05
2017-11-08T11:08:05.284Z,1034.04
2017-11-08T11:09:05.275Z,1034.02
2017-11-08T11:10:05.267Z,1034.02
2017-11-08T11:11:05.261Z,1034.06
2017-11-08T11:12:05.264Z,1034.07
2017-11-08T11:13:05.242Z,1034.09
2017-11-08T11:14:05.234Z,1034.14
2017-11-08T11:15:05.224Z,1034.15
2017-11-08T11:16:05.214Z,1034.1
2017-11-08T11:17:05.207Z,1034.13
2017-11-08T11:18:05.210Z,1034.19
2017-11-08T11:19:05.190Z,1034.27
2017-11-08T11:20:05.188Z,1034.29
2017-11-08T11:21:05.179Z,1034.35
2017-11-08T11:22:05.181Z,1034.33
2017-11-08T11:23:05.159Z,1034.31
2017-11-08T11:24:05.166Z,1034.35
2017-11-08T11:25:05.148Z,1034.4
2017-11-08T11:26:05.148Z,1034.32
2017-11-08T11:27:05.133Z,1034.35
2017-11-08T11:28:05.117Z,1034.36
2017-11-08T11:29:05.107Z,1034.34
2017-11-08T11:30:05.098Z,1034.25
2017-11-08T11:31:05.103Z,1034.27
2017-11-08T11:32:05.082Z,1034.29
2017-11-08T11:33:05.073Z,1034.22
2017-11-08T11:34:05.065Z,1034.25
2017-11-08T11:35:05.058Z,1034.2
2017-11-08T11:36:05.048Z,1034.16
2017-11-08T11:37:05.041Z,1034.09
2017-11-08T11:38:05.032Z,1034.07
2017-11-08T11:39:05.023Z,1034.1
2017-11-08T11:40:05.028Z,1034.02
2017-11-08T11:41:05.007Z,1034.03
2017-11-08T11:42:05.001Z,1034.03
2017-11-08T11:43:04.990Z,1034.02
2017-11-08T11:44:04.988Z,1034.01
2017-11-08T11:45:04.976Z,1033.95
2017-11-08T11:46:04.966Z,1033.87
2017-11-08T11:47:04.955Z,1033.9
2017-11-08T11:48:04.947Z,1033.89
2017-11-08T11:49:04.939Z,1033.9
2017-11-08T11:50:04.931Z,1033.87
2017-11-08T11:51:04.923Z,1033.84
2017-11-08T11:52:04.912Z,1033.79
2017-11-08T11:53:04.905Z,1033.8
2017-11-08T11:54:04.897Z,1033.76
2017-11-08T11:55:04.887Z,1033.67
2017-11-08T11:56:04.881Z,1033.62
2017-11-08T11:57:04.872Z,1033.59
2017-11-08T11:58:04.864Z,1033.56
2017-11-08T11:59:04.856Z,1033.52
2017-11-08T12:00:04.848Z,1033.48
2017-11-08T12:01:04.841Z,1033.45
2017-11-08T12:02:04.832Z,1033.42
2017-11-08T12:03:04.823Z,1033.44
2017-11-08T12:04:04.816Z,1033.37
2017-11-08T12:05:04.809Z,1033.42
2017-11-08T12:06:04.800Z,1033.44
2017-11-08T12:07:04.791Z,1033.4
2017-11-08T12:08:04.801Z,1033.45